Time;durP1;ratioP1;P1;durP2;ratioP2;P2;SDS_P1;SDS_P2;PMS_P1;PMS_P2;Temp;Humidity;BMP_temperature;BMP_pressure;BME280_temperature;BME280_humidity;BME280_pressure;Samples;Min_cycle;Max_cycle;Signal;HPM_P1;HPM_P2
2021/06/27 00:00:17;;;;;;;11.23;10.03;;;19.80;99.90;;;;;;4932080;29;20462;-77
2021/06/27 00:02:44;;;;;;;11.70;10.50;;;19.80;99.90;;;;;;4932757;29;20447;-77
2021/06/27 00:05:15;;;;;;;11.40;9.90;;;19.70;99.90;;;;;;4930613;29;20960;-76
2021/06/27 00:07:42;;;;;;;11.33;10.23;;;19.70;99.90;;;;;;4897681;29;20526;-77
2021/06/27 00:10:14;;;;;;;12.90;10.20;;;19.70;99.90;;;;;;4897363;29;20451;-76
2021/06/27 00:12:41;;;;;;;10.97;9.87;;;19.60;99.90;;;;;;4914704;29;20447;-76
2021/06/27 00:15:15;;;;;;;13.90;10.83;;;19.60;99.90;;;;;;4903537;29;20988;-76
2021/06/27 00:17:43;;;;;;;11.70;9.93;;;19.60;99.90;;;;;;4935203;29;20446;-76
2021/06/27 00:20:13;;;;;;;12.03;10.23;;;19.60;99.90;;;;;;4935200;29;20458;-76
2021/06/27 00:22:40;;;;;;;10.57;9.27;;;19.60;99.90;;;;;;4935251;29;20456;-77
2021/06/27 00:25:12;;;;;;;12.60;11.30;;;19.50;99.90;;;;;;4932733;29;20462;-76
2021/06/27 00:27:40;;;;;;;11.73;9.47;;;19.50;99.90;;;;;;4914708;29;20488;-76
2021/06/27 00:30:11;;;;;;;9.50;8.60;;;19.50;99.90;;;;;;4932684;29;20489;-76
2021/06/27 00:32:38;;;;;;;10.67;9.57;;;19.50;99.90;;;;;;4933024;29;20454;-76
2021/06/27 00:35:07;;;;;;;12.70;9.50;;;19.50;99.90;;;;;;4933041;29;20505;-76
2021/06/27 00:37:34;;;;;;;10.27;9.23;;;19.50;99.90;;;;;;4917177;29;20448;-76
2021/06/27 00:40:01;;;;;;;12.67;10.17;;;19.50;99.90;;;;;;4935222;29;20450;-75
2021/06/27 00:42:28;;;;;;;11.17;9.60;;;19.40;99.90;;;;;;4935098;29;20458;-76
2021/06/27 00:44:55;;;;;;;10.70;9.60;;;19.40;99.90;;;;;;4935074;29;20450;-77
2021/06/27 00:47:32;;;;;;;11.27;9.80;;;19.40;99.90;;;;;;4932634;29;20446;-77
2021/06/27 00:49:59;;;;;;;10.53;9.27;;;19.30;99.90;;;;;;4914548;29;20449;-77
2021/06/27 00:52:27;;;;;;;10.83;9.80;;;19.30;99.90;;;;;;4933289;29;20462;-77
2021/06/27 00:54:54;;;;;;;9.80;8.80;;;19.30;99.90;;;;;;4915705;29;20495;-76
2021/06/27 00:57:21;;;;;;;11.00;9.73;;;19.20;99.90;;;;;;4916246;29;20476;-77
2021/06/27 00:59:48;;;;;;;9.57;8.67;;;19.20;99.90;;;;;;4891583;29;20433;-76
2021/06/27 01:02:15;;;;;;;9.97;9.07;;;19.20;99.90;;;;;;4915834;29;20429;-76
2021/06/27 01:04:43;;;;;;;9.80;8.80;;;19.20;99.90;;;;;;4915977;29;20450;-76
2021/06/27 01:07:11;;;;;;;10.30;9.30;;;19.10;99.90;;;;;;4916213;29;20455;-76
2021/06/27 01:09:39;;;;;;;10.40;9.30;;;19.10;99.90;;;;;;4927526;29;20920;-77
2021/06/27 01:12:07;;;;;;;10.70;9.60;;;19.10;99.90;;;;;;4913982;29;20792;-76
2021/06/27 01:14:34;;;;;;;10.10;9.20;;;19.10;99.90;;;;;;4932503;29;20471;-76
2021/06/27 01:17:02;;;;;;;9.43;8.53;;;19.10;99.90;;;;;;4934948;29;20455;-77
2021/06/27 01:19:31;;;;;;;9.80;8.90;;;19.00;99.90;;;;;;4936727;29;20551;-77
2021/06/27 01:22:00;;;;;;;9.80;8.80;;;19.00;99.90;;;;;;4929708;29;20805;-76
2021/06/27 01:24:28;;;;;;;9.67;8.77;;;19.00;99.90;;;;;;4921463;29;20450;-76
2021/06/27 01:26:55;;;;;;;10.67;9.67;;;18.90;99.90;;;;;;4937936;29;20470;-77
2021/06/27 01:29:22;;;;;;;10.50;9.50;;;18.90;99.90;;;;;;4921378;29;20537;-77
2021/06/27 01:31:50;;;;;;;10.00;9.00;;;18.90;99.90;;;;;;4934744;29;20456;-76
2021/06/27 01:34:17;;;;;;;10.27;9.27;;;18.90;99.90;;;;;;4917413;29;20464;-76
2021/06/27 01:36:44;;;;;;;9.10;8.20;;;18.80;99.90;;;;;;4919140;29;20450;-77
2021/06/27 01:39:12;;;;;;;10.70;9.60;;;18.90;99.90;;;;;;4935794;29;20425;-79
2021/06/27 01:41:48;;;;;;;10.37;9.30;;;18.80;99.90;;;;;;4919043;29;20453;-77
2021/06/27 01:44:15;;;;;;;10.97;9.23;;;18.80;99.90;;;;;;4907463;29;20461;-79
2021/06/27 01:46:43;;;;;;;10.40;9.40;;;18.80;99.90;;;;;;4919118;29;20452;-76
2021/06/27 01:49:10;;;;;;;9.80;8.90;;;18.70;99.90;;;;;;4918926;29;20519;-76
2021/06/27 01:51:36;;;;;;;9.30;8.40;;;18.80;99.90;;;;;;4918790;29;20679;-77
2021/06/27 01:54:04;;;;;;;10.50;9.40;;;18.70;99.90;;;;;;4931746;29;20934;-76
2021/06/27 01:56:32;;;;;;;31.47;9.53;;;18.70;99.90;;;;;;4917359;29;20447;-76
2021/06/27 01:59:02;;;;;;;9.70;8.80;;;18.60;99.90;;;;;;4935869;29;20428;-77
2021/06/27 02:01:31;;;;;;;10.17;9.17;;;18.70;99.90;;;;;;4935485;29;20432;-76
2021/06/27 02:03:58;;;;;;;10.10;9.10;;;18.70;99.90;;;;;;4919005;29;20434;-76
2021/06/27 02:06:27;;;;;;;9.77;8.87;;;18.60;99.90;;;;;;4936682;29;20495;-77
2021/06/27 02:08:56;;;;;;;11.73;9.10;;;18.60;99.90;;;;;;4920736;29;20438;-76
2021/06/27 02:11:25;;;;;;;8.70;7.90;;;18.50;99.90;;;;;;4937637;29;20454;-77
2021/06/27 02:13:55;;;;;;;9.17;8.37;;;18.50;99.90;;;;;;4904972;29;20770;-77
2021/06/27 02:16:22;;;;;;;9.43;8.43;;;18.50;99.90;;;;;;4916175;29;20773;-77
2021/06/27 02:18:51;;;;;;;9.77;8.87;;;18.50;99.90;;;;;;4933841;29;20430;-76
2021/06/27 02:21:20;;;;;;;9.20;8.33;;;18.40;99.90;;;;;;4935559;29;20427;-77
2021/06/27 02:23:47;;;;;;;10.47;9.47;;;18.40;99.90;;;;;;4935241;29;20935;-77
2021/06/27 02:26:14;;;;;;;10.13;9.23;;;18.40;99.90;;;;;;4918326;29;20439;-77
2021/06/27 02:28:42;;;;;;;9.30;8.40;;;18.30;99.90;;;;;;4919101;29;20463;-78
2021/06/27 02:31:10;;;;;;;9.97;8.90;;;18.30;99.90;;;;;;4920276;29;20780;-77
2021/06/27 02:33:38;;;;;;;10.30;9.30;;;18.30;99.90;;;;;;4920089;29;20510;-76
2021/06/27 02:36:06;;;;;;;10.37;9.37;;;18.20;99.90;;;;;;4919698;29;20566;-76
2021/06/27 02:38:34;;;;;;;10.13;9.10;;;18.20;99.90;;;;;;4932655;29;20449;-76
2021/06/27 02:41:01;;;;;;;9.47;8.67;;;18.20;99.90;;;;;;4916728;29;20432;-76
2021/06/27 02:43:28;;;;;;;9.93;8.93;;;18.10;99.90;;;;;;4935183;29;20458;-76
2021/06/27 02:45:55;;;;;;;9.10;8.20;;;18.10;99.90;;;;;;4934752;29;20449;-76
2021/06/27 02:48:23;;;;;;;10.67;9.57;;;18.10;99.90;;;;;;4934728;29;20426;-76
2021/06/27 02:50:50;;;;;;;10.30;9.40;;;18.00;99.90;;;;;;4936146;29;20941;-76
2021/06/27 02:53:17;;;;;;;10.90;9.17;;;18.00;99.90;;;;;;4936804;29;20438;-77
2021/06/27 02:55:45;;;;;;;9.87;8.97;;;18.00;99.90;;;;;;4936540;29;20469;-77
2021/06/27 02:58:12;;;;;;;9.13;8.27;;;18.00;99.90;;;;;;4936245;29;20452;-76
2021/06/27 03:00:40;;;;;;;10.20;9.20;;;17.90;99.90;;;;;;4915480;29;20415;-77
2021/06/27 03:03:06;;;;;;;9.07;8.17;;;18.00;99.90;;;;;;4916232;29;20506;-76
2021/06/27 03:05:35;;;;;;;10.43;9.43;;;17.90;99.90;;;;;;4934503;29;20463;-77
2021/06/27 03:08:01;;;;;;;9.67;8.80;;;17.90;99.90;;;;;;4934414;29;20430;-77
2021/06/27 03:10:28;;;;;;;9.60;8.60;;;17.90;99.90;;;;;;4934617;29;20430;-76
2021/06/27 03:12:55;;;;;;;10.20;8.87;;;17.90;99.90;;;;;;4919575;29;20916;-77
2021/06/27 03:15:22;;;;;;;9.70;8.70;;;17.90;99.90;;;;;;4917159;29;20801;-76
2021/06/27 03:17:49;;;;;;;8.93;8.07;;;17.90;99.90;;;;;;4900691;29;20429;-76
2021/06/27 03:20:17;;;;;;;9.97;9.07;;;17.90;99.90;;;;;;4918203;29;20768;-77
2021/06/27 03:22:47;;;;;;;9.40;8.50;;;17.90;99.90;;;;;;4914898;29;20419;-77
2021/06/27 03:25:15;;;;;;;10.07;8.87;;;17.90;99.90;;;;;;4916013;29;20474;-77
2021/06/27 03:27:43;;;;;;;9.73;8.73;;;17.90;99.90;;;;;;4933776;29;20482;-76
2021/06/27 03:30:12;;;;;;;15.27;9.27;;;17.90;99.90;;;;;;4917341;29;20507;-77
2021/06/27 03:32:40;;;;;;;9.77;8.47;;;17.90;99.90;;;;;;4934321;29;20431;-77
2021/06/27 03:35:08;;;;;;;10.10;9.10;;;18.00;99.90;;;;;;4935259;29;20929;-77
2021/06/27 03:37:35;;;;;;;9.53;8.60;;;18.00;99.90;;;;;;4935919;29;20438;-77
2021/06/27 03:40:04;;;;;;;8.83;8.03;;;18.00;99.90;;;;;;4935219;29;20462;-76
2021/06/27 03:42:31;;;;;;;9.33;8.10;;;18.10;99.90;;;;;;4935028;29;20448;-76
2021/06/27 03:44:58;;;;;;;9.97;8.97;;;18.10;99.90;;;;;;4927477;29;20939;-77
2021/06/27 03:47:25;;;;;;;9.43;8.53;;;18.10;99.90;;;;;;4932708;29;20429;-75
2021/06/27 03:49:53;;;;;;;11.73;9.13;;;18.20;99.90;;;;;;4933765;29;20434;-77
2021/06/27 03:52:20;;;;;;;10.83;9.83;;;18.20;99.90;;;;;;4933916;29;20538;-77
2021/06/27 03:54:47;;;;;;;9.50;8.60;;;18.20;99.90;;;;;;4933670;29;20579;-77
2021/06/27 03:57:15;;;;;;;10.13;9.20;;;18.30;99.90;;;;;;4934925;29;20959;-77
2021/06/27 03:59:42;;;;;;;10.00;9.10;;;18.30;99.90;;;;;;4935837;29;20422;-76
2021/06/27 04:02:09;;;;;;;9.27;8.43;;;18.30;99.90;;;;;;4935575;29;20429;-77
2021/06/27 04:04:36;;;;;;;8.70;7.90;;;18.40;99.90;;;;;;4934812;29;20449;-76
2021/06/27 04:07:03;;;;;;;9.73;8.83;;;18.40;99.90;;;;;;4931080;29;20851;-76
2021/06/27 04:09:30;;;;;;;9.37;8.50;;;18.40;99.90;;;;;;4932348;29;20424;-77
2021/06/27 04:11:57;;;;;;;9.40;7.80;;;18.50;99.90;;;;;;4933520;29;20456;-77
2021/06/27 04:14:25;;;;;;;8.73;7.80;;;18.50;99.90;;;;;;4933482;29;20450;-77
2021/06/27 04:16:52;;;;;;;9.40;8.30;;;18.50;99.90;;;;;;4933731;29;20464;-77
2021/06/27 04:19:19;;;;;;;9.43;8.53;;;18.60;99.90;;;;;;4934800;29;20951;-76
2021/06/27 04:21:46;;;;;;;9.43;7.87;;;18.60;99.90;;;;;;4935289;29;20458;-76
2021/06/27 04:24:13;;;;;;;8.97;8.10;;;18.60;99.90;;;;;;4918303;29;20805;-76
2021/06/27 04:26:40;;;;;;;10.20;8.83;;;18.60;99.90;;;;;;4934429;29;20469;-75
2021/06/27 04:29:11;;;;;;;9.37;8.57;;;18.60;99.90;;;;;;4930638;29;20486;-76
2021/06/27 04:31:40;;;;;;;9.90;9.00;;;18.60;99.90;;;;;;4932299;29;20544;-77
2021/06/27 04:34:08;;;;;;;8.60;7.80;;;18.70;99.90;;;;;;4933060;29;20452;-76
2021/06/27 04:36:35;;;;;;;10.10;9.10;;;18.70;99.90;;;;;;4932868;29;20490;-77
2021/06/27 04:39:02;;;;;;;9.90;8.90;;;18.70;99.90;;;;;;4933367;29;20458;-77
2021/06/27 04:41:33;;;;;;;9.30;8.43;;;18.70;99.90;;;;;;4916315;29;20439;-76
2021/06/27 04:44:00;;;;;;;8.87;8.07;;;18.80;99.90;;;;;;4916162;29;20451;-77
2021/06/27 04:46:27;;;;;;;8.90;8.10;;;18.80;99.90;;;;;;4916074;29;20548;-77
2021/06/27 04:48:55;;;;;;;8.60;7.70;;;18.90;99.90;;;;;;4919611;29;20508;-76
2021/06/27 04:51:22;;;;;;;9.30;8.30;;;18.90;99.90;;;;;;4933565;29;20446;-77
2021/06/27 04:53:49;;;;;;;9.63;8.60;;;19.00;99.90;;;;;;4936290;29;20451;-76
2021/06/27 04:56:16;;;;;;;9.70;8.70;;;19.00;99.90;;;;;;4936879;29;20494;-75
2021/06/27 04:58:43;;;;;;;9.00;8.10;;;19.00;99.90;;;;;;4936826;29;20461;-76
2021/06/27 05:01:10;;;;;;;10.07;9.07;;;19.10;99.90;;;;;;4936697;29;20542;-76
2021/06/27 05:03:37;;;;;;;9.20;8.27;;;19.10;99.90;;;;;;4938800;29;20489;-76
2021/06/27 05:06:06;;;;;;;9.47;8.63;;;19.20;99.90;;;;;;4938537;29;20463;-75
2021/06/27 05:08:33;;;;;;;8.83;7.93;;;19.20;99.90;;;;;;4938770;29;20458;-77
2021/06/27 05:10:59;;;;;;;9.60;8.70;;;19.20;99.90;;;;;;4937472;29;20486;-76
2021/06/27 05:13:26;;;;;;;8.80;7.90;;;19.30;99.90;;;;;;4934342;29;20450;-78
2021/06/27 05:15:53;;;;;;;7.93;7.23;;;19.40;99.90;;;;;;4935674;29;20492;-76
2021/06/27 05:18:20;;;;;;;8.40;7.70;;;19.40;99.90;;;;;;4936121;29;20450;-76
2021/06/27 05:20:47;;;;;;;9.33;8.47;;;19.40;99.90;;;;;;4936484;29;20486;-75
2021/06/27 05:23:16;;;;;;;13.13;7.60;;;19.50;99.90;;;;;;4918818;29;20450;-76
2021/06/27 05:25:43;;;;;;;8.70;7.80;;;19.60;99.90;;;;;;4919344;29;20463;-76
2021/06/27 05:28:11;;;;;;;7.90;7.20;;;19.70;99.90;;;;;;4902425;29;20485;-76
2021/06/27 05:30:38;;;;;;;9.27;8.50;;;19.80;99.90;;;;;;4903236;29;20452;-77
2021/06/27 05:33:05;;;;;;;8.47;7.03;;;19.90;99.90;;;;;;4933744;29;20936;-76
2021/06/27 05:35:32;;;;;;;7.33;6.70;;;20.20;99.90;;;;;;4934610;29;20486;-77
2021/06/27 05:37:59;;;;;;;11.97;7.53;;;20.40;99.90;;;;;;4929084;29;20459;-75
2021/06/27 05:40:28;;;;;;;7.90;7.20;;;20.60;99.90;;;;;;4936442;29;20450;-77
2021/06/27 05:42:55;;;;;;;7.50;6.80;;;20.90;99.90;;;;;;4936321;29;20550;-77
2021/06/27 05:45:22;;;;;;;9.60;7.20;;;21.20;99.90;;;;;;4936990;29;20490;-77
2021/06/27 05:47:49;;;;;;;7.70;7.10;;;21.40;99.90;;;;;;4938075;29;20462;-77
2021/06/27 05:50:16;;;;;;;7.27;6.67;;;21.70;99.90;;;;;;4935925;29;20943;-77
2021/06/27 05:52:43;;;;;;;7.47;6.87;;;21.90;99.90;;;;;;4937062;29;20947;-76
2021/06/27 05:55:10;;;;;;;8.10;7.40;;;22.20;99.90;;;;;;4933110;29;20458;-76
2021/06/27 05:57:38;;;;;;;7.13;6.53;;;22.40;99.90;;;;;;4934069;29;20482;-76
2021/06/27 06:00:07;;;;;;;7.10;6.60;;;22.60;99.90;;;;;;4935361;29;20465;-76
2021/06/27 06:02:33;;;;;;;6.30;5.80;;;22.90;99.90;;;;;;4935204;29;20893;-74
2021/06/27 06:05:00;;;;;;;7.70;7.00;;;23.10;99.90;;;;;;4935884;29;21799;-77
2021/06/27 06:07:27;;;;;;;9.27;6.13;;;23.30;99.90;;;;;;4931050;29;20462;-77
2021/06/27 06:09:54;;;;;;;7.70;7.10;;;23.40;99.90;;;;;;4937381;29;20457;-77
2021/06/27 06:12:21;;;;;;;8.10;7.30;;;23.50;99.90;;;;;;4937608;29;20451;-77
2021/06/27 06:14:49;;;;;;;7.23;6.63;;;23.60;99.90;;;;;;4936970;29;20905;-77
2021/06/27 06:17:16;;;;;;;7.77;7.07;;;23.60;99.90;;;;;;4933041;29;20499;-77
2021/06/27 06:19:43;;;;;;;7.57;6.87;;;23.60;99.90;;;;;;4933317;29;20933;-79
2021/06/27 06:22:10;;;;;;;8.90;7.20;;;23.70;99.90;;;;;;4935402;29;20461;-76
2021/06/27 06:24:37;;;;;;;8.17;7.40;;;23.70;99.90;;;;;;4934914;29;20450;-77
2021/06/27 06:27:05;;;;;;;7.73;7.03;;;23.70;99.90;;;;;;4935379;29;20969;-78
2021/06/27 06:29:31;;;;;;;6.53;6.00;;;23.80;99.90;;;;;;4936447;29;20471;-78
2021/06/27 06:32:00;;;;;;;8.03;7.33;;;24.00;99.90;;;;;;4937128;29;20453;-76
2021/06/27 06:34:27;;;;;;;7.83;7.13;;;24.10;99.90;;;;;;4937045;29;20960;-77
2021/06/27 06:36:54;;;;;;;7.60;7.00;;;24.40;99.90;;;;;;4936525;29;20494;-77
2021/06/27 06:39:21;;;;;;;7.07;6.50;;;24.60;99.90;;;;;;4933503;29;20443;-77
2021/06/27 06:41:47;;;;;;;8.90;7.07;;;24.70;99.90;;;;;;4933047;29;20442;-76
2021/06/27 06:44:14;;;;;;;7.43;6.83;;;24.70;99.90;;;;;;4935102;29;20451;-77
2021/06/27 06:46:41;;;;;;;6.87;6.27;;;24.70;99.90;;;;;;4934858;29;20556;-77
2021/06/27 06:49:10;;;;;;;6.83;6.17;;;24.80;99.90;;;;;;4934810;29;20549;-78
2021/06/27 06:51:38;;;;;;;7.63;6.93;;;24.90;99.90;;;;;;4935361;29;20812;-78
2021/06/27 06:54:05;;;;;;;7.70;6.90;;;24.90;99.90;;;;;;4936676;29;20490;-77
2021/06/27 06:56:32;;;;;;;7.60;7.00;;;25.00;99.90;;;;;;4921445;29;20490;-78
2021/06/27 06:58:59;;;;;;;7.60;6.93;;;24.90;99.90;;;;;;4917640;29;20447;-78
2021/06/27 07:01:27;;;;;;;8.37;7.57;;;24.90;99.90;;;;;;4928307;29;20462;-77
2021/06/27 07:03:53;;;;;;;8.47;7.73;;;25.00;99.90;;;;;;4932421;29;20849;-77
2021/06/27 07:06:22;;;;;;;7.57;6.80;;;25.00;99.90;;;;;;4934255;29;20469;-79
2021/06/27 07:08:49;;;;;;;6.50;5.90;;;25.10;99.90;;;;;;4928823;29;20478;-78
2021/06/27 07:11:16;;;;;;;6.90;6.40;;;25.20;99.90;;;;;;4934942;29;20454;-77
2021/06/27 07:13:43;;;;;;;6.53;6.03;;;25.50;99.90;;;;;;4934366;29;20466;-78
2021/06/27 07:16:10;;;;;;;6.37;5.77;;;25.60;99.90;;;;;;4936317;29;20490;-77
2021/06/27 07:18:37;;;;;;;7.53;6.93;;;25.80;99.90;;;;;;4936308;29;20804;-79
2021/06/27 07:21:04;;;;;;;7.97;7.10;;;26.00;99.90;;;;;;4936561;29;20940;-77
2021/06/27 07:23:32;;;;;;;7.40;6.80;;;26.10;99.90;;;;;;4933222;29;20446;-76
2021/06/27 07:25:59;;;;;;;6.90;6.40;;;26.10;99.90;;;;;;4931966;29;20477;-81
2021/06/27 07:28:26;;;;;;;7.40;6.80;;;26.20;99.90;;;;;;4931939;29;20490;-80
2021/06/27 07:30:52;;;;;;;7.67;6.30;;;26.50;99.90;;;;;;4930155;29;20851;-78
2021/06/27 07:33:20;;;;;;;8.13;6.00;;;26.90;99.90;;;;;;4930724;29;20945;-83
2021/06/27 07:35:47;;;;;;;5.80;5.30;;;27.30;99.90;;;;;;4921632;29;20543;-81
2021/06/27 07:38:14;;;;;;;6.03;5.53;;;27.80;99.90;;;;;;4928342;29;20510;-82
2021/06/27 07:40:43;;;;;;;6.27;5.77;;;28.40;99.90;;;;;;4928864;29;20450;-82
2021/06/27 07:43:10;;;;;;;6.63;6.03;;;28.90;99.90;;;;;;4930694;29;20454;-86
2021/06/27 07:45:37;;;;;;;6.27;5.67;;;29.30;99.90;;;;;;4930438;29;20466;-83
2021/06/27 07:48:05;;;;;;;6.20;5.70;;;29.70;99.90;;;;;;4913867;29;20450;-84
2021/06/27 07:50:32;;;;;;;6.10;5.60;;;30.20;99.90;;;;;;4931382;29;20477;-83
2021/06/27 07:52:59;;;;;;;5.47;5.00;;;30.40;99.90;;;;;;4932149;29;20454;-81
2021/06/27 07:55:26;;;;;;;6.00;5.53;;;30.50;99.90;;;;;;4932299;29;20500;-80
2021/06/27 07:57:54;;;;;;;6.17;5.67;;;30.70;99.90;;;;;;4931481;29;20553;-82
2021/06/27 08:00:22;;;;;;;6.23;5.73;;;30.90;99.90;;;;;;4927954;29;20453;-81
2021/06/27 08:02:49;;;;;;;6.53;4.60;;;31.00;99.90;;;;;;4928605;29;20903;-82
2021/06/27 08:05:16;;;;;;;5.77;5.37;;;31.10;99.90;;;;;;4929753;29;20848;-78
2021/06/27 08:07:43;;;;;;;6.40;5.90;;;31.20;99.90;;;;;;4930126;29;20460;-78
2021/06/27 08:10:11;;;;;;;5.70;5.30;;;31.40;99.90;;;;;;4913725;29;20482;-79
2021/06/27 08:12:38;;;;;;;6.10;5.60;;;31.50;99.90;;;;;;4931091;29;20474;-84
2021/06/27 08:15:10;;;;;;;6.70;6.20;;;31.60;99.90;;;;;;4931679;29;21071;-83
2021/06/27 08:17:37;;;;;;;5.70;5.30;;;31.60;99.90;;;;;;4931353;29;20635;-82
2021/06/27 08:20:06;;;;;;;5.67;5.27;;;31.70;99.90;;;;;;4932091;29;20545;-84
2021/06/27 08:22:33;;;;;;;5.67;5.27;;;31.70;99.90;;;;;;4928210;29;20992;-81
2021/06/27 08:25:00;;;;;;;6.00;5.53;;;31.90;99.90;;;;;;4927705;29;20537;-80
2021/06/27 08:27:27;;;;;;;5.23;4.83;;;32.00;99.90;;;;;;4929731;29;20486;-83
2021/06/27 08:29:53;;;;;;;5.47;5.07;;;32.10;99.90;;;;;;4929289;29;20457;-82
2021/06/27 08:32:22;;;;;;;5.87;5.37;;;32.30;99.90;;;;;;4932669;29;20442;-83
2021/06/27 08:34:49;;;;;;;5.60;5.20;;;32.50;99.90;;;;;;4930303;29;20940;-80
2021/06/27 08:37:16;;;;;;;5.67;5.17;;;32.60;99.90;;;;;;4930351;29;20505;-82
2021/06/27 08:39:42;;;;;;;6.07;5.57;;;32.80;99.90;;;;;;4931038;29;20454;-80
2021/06/27 08:42:10;;;;;;;6.70;6.00;;;32.90;99.90;;;;;;4932805;29;20549;-81
2021/06/27 08:44:36;;;;;;;6.13;5.63;;;32.90;99.90;;;;;;4933260;29;20449;-80
2021/06/27 08:47:05;;;;;;;6.43;5.40;;;32.80;99.90;;;;;;4933317;29;20463;-82
2021/06/27 08:49:34;;;;;;;5.80;5.30;;;32.80;99.90;;;;;;4932624;29;20466;-81
2021/06/27 08:52:02;;;;;;;5.60;5.20;;;32.60;99.90;;;;;;4927531;29;20474;-81
2021/06/27 08:54:29;;;;;;;5.67;5.23;;;32.60;99.90;;;;;;4929891;29;21077;-81
2021/06/27 08:56:57;;;;;;;6.13;5.30;;;32.50;99.90;;;;;;4932968;29;20493;-83
2021/06/27 08:59:24;;;;;;;5.97;5.37;;;32.50;99.90;;;;;;4932562;29;20455;-80
2021/06/27 09:01:51;;;;;;;7.90;5.57;;;32.60;99.90;;;;;;4933474;29;20465;-81
2021/06/27 09:04:19;;;;;;;5.43;5.03;;;32.70;99.90;;;;;;4933611;29;20469;-81
2021/06/27 09:06:47;;;;;;;5.73;5.20;;;32.80;99.90;;;;;;4933972;29;20470;-81
2021/06/27 09:09:17;;;;;;;6.80;6.30;;;32.90;99.90;;;;;;4934364;29;20447;-81
2021/06/27 09:11:59;;;;;;;5.87;5.37;;;32.90;99.90;;;;;;4934822;29;20446;-79
2021/06/27 09:14:30;;;;;;;5.03;4.73;;;33.00;99.90;;;;;;4913996;29;20546;-80
2021/06/27 09:17:14;;;;;;;5.80;5.40;;;33.20;99.90;;;;;;4899024;29;20568;-83
2021/06/27 09:20:02;;;;;;;5.93;5.43;;;33.30;99.90;;;;;;4901014;29;20812;-85
2021/06/27 09:22:33;;;;;;;5.77;5.37;;;33.60;99.90;;;;;;4930695;29;21148;-83
2021/06/27 09:25:16;;;;;;;6.20;5.60;;;33.70;99.90;;;;;;4914450;29;20453;-84
2021/06/27 09:27:43;;;;;;;5.20;4.80;;;33.80;99.90;;;;;;4915121;29;20572;-80
2021/06/27 09:30:15;;;;;;;5.60;5.20;;;33.80;99.90;;;;;;4916045;29;20486;-80
2021/06/27 09:32:52;;;;;;;5.23;4.83;;;33.70;99.90;;;;;;4934370;29;20450;-80
2021/06/27 09:35:38;;;;;;;8.37;6.13;;;33.20;99.90;;;;;;4916004;29;20942;-81
2021/06/27 09:38:23;;;;;;;5.77;5.37;;;33.00;99.90;;;;;;4902816;29;20858;-82
2021/06/27 09:40:52;;;;;;;5.73;5.33;;;32.60;99.90;;;;;;4921204;29;20446;-78
2021/06/27 09:43:19;;;;;;;6.03;5.63;;;32.20;99.90;;;;;;4919111;29;20833;-80
2021/06/27 09:45:47;;;;;;;5.97;5.47;;;31.80;99.90;;;;;;4936550;29;20474;-77
2021/06/27 09:48:15;;;;;;;5.17;4.77;;;31.40;99.90;;;;;;4919915;29;20581;-82
2021/06/27 09:50:43;;;;;;;6.90;6.30;;;31.10;99.90;;;;;;4938052;29;20461;-79
2021/06/27 09:53:34;;;;;;;5.87;5.37;;;30.80;99.90;;;;;;4937641;29;20469;-79
2021/06/27 09:56:03;;;;;;;6.07;5.57;;;30.40;99.90;;;;;;4924446;29;20462;-78
2021/06/27 09:58:30;;;;;;;5.50;5.10;;;30.10;99.90;;;;;;4933878;29;21006;-79
2021/06/27 10:00:58;;;;;;;5.70;5.30;;;29.90;99.90;;;;;;4917095;29;20446;-79
2021/06/27 10:03:25;;;;;;;6.03;5.60;;;29.70;99.90;;;;;;4935502;29;20459;-79
2021/06/27 10:05:53;;;;;;;6.43;5.93;;;29.50;99.90;;;;;;4935481;29;20855;-79
2021/06/27 10:08:28;;;;;;;6.33;5.73;;;29.10;99.90;;;;;;4935737;29;20450;-82
2021/06/27 10:11:15;;;;;;;5.90;5.40;;;28.90;99.90;;;;;;4938387;29;20815;-78
2021/06/27 10:13:43;;;;;;;6.33;5.83;;;28.70;99.90;;;;;;4908288;29;20457;-80
2021/06/27 10:16:15;;;;;;;7.67;5.60;;;28.50;99.90;;;;;;4937347;29;20471;-78
2021/06/27 10:18:43;;;;;;;5.40;4.90;;;28.40;99.90;;;;;;4920322;29;20995;-82
2021/06/27 10:21:11;;;;;;;4.90;4.50;;;28.30;99.90;;;;;;4933308;29;20812;-80
2021/06/27 10:23:38;;;;;;;5.23;4.83;;;28.10;99.90;;;;;;4917209;29;20454;-79
2021/06/27 10:26:05;;;;;;;5.63;5.13;;;28.00;99.90;;;;;;4935126;29;20474;-79
2021/06/27 10:28:35;;;;;;;5.30;4.80;;;28.00;99.90;;;;;;4918152;29;20817;-80
2021/06/27 10:31:02;;;;;;;5.87;5.37;;;27.90;99.90;;;;;;4935665;29;20458;-80
2021/06/27 10:33:31;;;;;;;5.13;4.70;;;27.80;99.90;;;;;;4937982;29;20824;-79
2021/06/27 10:35:59;;;;;;;5.43;4.93;;;27.80;99.90;;;;;;4920285;29;20473;-80
2021/06/27 10:38:29;;;;;;;5.73;5.23;;;27.70;99.90;;;;;;4920028;29;20486;-79
2021/06/27 10:40:57;;;;;;;6.20;5.60;;;27.70;99.90;;;;;;4919459;29;20455;-82
2021/06/27 10:43:25;;;;;;;4.90;4.50;;;27.60;99.90;;;;;;4932721;29;20541;-80
2021/06/27 10:46:01;;;;;;;6.20;5.60;;;27.50;99.90;;;;;;4917406;29;20478;-80
2021/06/27 10:48:43;;;;;;;6.00;4.93;;;27.50;99.90;;;;;;4934528;29;20505;-79
2021/06/27 10:51:13;;;;;;;4.70;4.30;;;27.40;99.90;;;;;;4919951;29;20453;-78
2021/06/27 10:54:09;;;;;;;8.13;4.87;;;27.50;99.90;;;;;;4915529;29;20435;-82
2021/06/27 10:56:53;;;;;;;5.10;4.70;;;27.50;99.90;;;;;;4916812;29;21017;-79
2021/06/27 10:59:51;;;;;;;5.93;5.43;;;27.50;99.90;;;;;;4901136;29;20523;-79
2021/06/27 11:02:21;;;;;;;6.03;5.50;;;27.50;99.90;;;;;;4917135;29;20443;-80
2021/06/27 11:04:51;;;;;;;7.03;6.10;;;27.50;99.90;;;;;;4914651;29;20439;-78
2021/06/27 11:07:47;;;;;;;5.80;5.33;;;27.60;99.90;;;;;;4916467;29;20808;-78
2021/06/27 11:10:29;;;;;;;6.63;5.30;;;27.60;99.90;;;;;;4919426;29;20451;-78
2021/06/27 11:13:12;;;;;;;5.77;5.27;;;27.60;99.90;;;;;;4919792;29;20549;-79
2021/06/27 11:15:58;;;;;;;5.93;5.23;;;27.70;99.90;;;;;;4919782;29;20473;-81
2021/06/27 11:18:32;;;;;;;5.43;4.73;;;27.70;99.90;;;;;;4906101;29;20922;-79
2021/06/27 11:21:06;;;;;;;5.40;5.00;;;27.70;99.90;;;;;;4904248;29;20461;-79
2021/06/27 11:23:56;;;;;;;5.40;5.00;;;27.70;99.90;;;;;;4919660;29;20457;-81
2021/06/27 11:26:54;;;;;;;5.57;5.17;;;27.70;99.90;;;;;;4932762;29;20490;-82
2021/06/27 11:29:44;;;;;;;5.60;5.10;;;27.60;99.90;;;;;;4918028;29;20549;-83
2021/06/27 11:32:38;;;;;;;5.43;5.03;;;27.60;99.90;;;;;;4933912;29;20937;-80
2021/06/27 11:35:08;;;;;;;5.60;5.10;;;27.60;99.90;;;;;;4933692;29;20466;-79
2021/06/27 11:37:45;;;;;;;5.40;4.70;;;27.60;99.90;;;;;;4932870;29;20483;-81
2021/06/27 11:40:12;;;;;;;4.90;4.50;;;27.60;99.90;;;;;;4917195;29;20450;-81
2021/06/27 11:42:49;;;;;;;5.17;4.77;;;27.60;99.90;;;;;;4917182;29;20812;-80
2021/06/27 11:45:46;;;;;;;4.87;4.40;;;27.60;99.90;;;;;;4917773;29;20980;-80
2021/06/27 11:48:13;;;;;;;5.00;4.60;;;27.60;99.90;;;;;;4925213;29;20446;-78
2021/06/27 11:50:47;;;;;;;4.53;3.90;;;27.70;99.90;;;;;;4915145;29;20533;-81
2021/06/27 11:53:15;;;;;;;4.90;4.40;;;27.70;99.90;;;;;;4933494;29;20473;-78
2021/06/27 11:55:44;;;;;;;5.00;4.43;;;27.70;99.90;;;;;;4916572;29;20521;-81
2021/06/27 11:58:18;;;;;;;4.37;3.97;;;27.80;99.90;;;;;;4933680;29;20490;-78
2021/06/27 12:00:49;;;;;;;4.83;4.43;;;27.80;99.90;;;;;;4934071;29;20485;-80
2021/06/27 12:03:18;;;;;;;4.83;4.43;;;27.90;99.90;;;;;;4935505;29;20457;-79
2021/06/27 12:05:53;;;;;;;4.33;3.93;;;28.00;99.90;;;;;;4918541;29;21069;-80
2021/06/27 12:08:21;;;;;;;4.87;4.47;;;28.00;99.90;;;;;;4935828;29;20450;-77
2021/06/27 12:10:50;;;;;;;4.73;4.30;;;28.10;99.90;;;;;;4932419;29;20941;-78
2021/06/27 12:13:17;;;;;;;4.30;4.00;;;28.20;99.90;;;;;;4916091;29;20478;-79
2021/06/27 12:15:47;;;;;;;4.20;3.90;;;28.20;99.90;;;;;;4933711;29;20477;-79
2021/06/27 12:18:15;;;;;;;4.30;3.90;;;28.30;99.90;;;;;;4933376;29;20521;-78
2021/06/27 12:20:47;;;;;;;4.50;4.20;;;28.30;99.90;;;;;;4933456;29;20446;-78
2021/06/27 12:23:17;;;;;;;4.50;4.10;;;28.30;99.90;;;;;;4904340;29;20972;-77
2021/06/27 12:25:46;;;;;;;3.97;3.67;;;28.40;99.90;;;;;;4899578;29;20467;-78
2021/06/27 12:28:15;;;;;;;4.83;4.43;;;28.40;99.90;;;;;;4899501;29;20542;-78
2021/06/27 12:30:47;;;;;;;4.57;4.20;;;28.50;99.90;;;;;;4916253;29;20490;-81
2021/06/27 12:33:15;;;;;;;4.47;4.07;;;28.60;99.90;;;;;;4930759;29;20486;-78
2021/06/27 12:35:44;;;;;;;4.37;4.07;;;28.60;99.90;;;;;;4928038;29;20469;-79
2021/06/27 12:38:12;;;;;;;4.00;3.70;;;28.70;99.90;;;;;;4912891;29;20583;-78
2021/06/27 12:40:45;;;;;;;4.10;3.80;;;28.70;99.90;;;;;;4929730;29;20447;-77
2021/06/27 12:43:29;;;;;;;3.90;3.60;;;28.80;99.90;;;;;;4929577;29;20856;-78
2021/06/27 12:46:15;;;;;;;4.40;4.00;;;28.80;99.90;;;;;;4912663;29;20490;-77
2021/06/27 12:48:43;;;;;;;5.00;4.60;;;28.80;99.90;;;;;;4911321;29;20486;-80
2021/06/27 12:51:33;;;;;;;5.00;4.20;;;28.80;99.90;;;;;;4912994;29;20450;-78
2021/06/27 12:54:03;;;;;;;4.57;4.27;;;28.90;99.90;;;;;;4915531;29;20451;-78
2021/06/27 12:56:49;;;;;;;4.83;3.80;;;28.90;99.90;;;;;;4897576;29;20968;-77